createdAt,value
2023-02-02T00:00:42.692Z,997.4
2023-02-02T00:01:44.109Z,997.4
2023-02-02T00:02:45.720Z,997.4
2023-02-02T00:03:47.433Z,997.4
2023-02-02T00:04:48.826Z,997.4
2023-02-02T00:05:50.245Z,997.4
2023-02-02T00:06:51.667Z,997.4
2023-02-02T00:07:53.077Z,997.4
2023-02-02T00:08:54.488Z,997.4
2023-02-02T00:09:55.939Z,997.4
2023-02-02T00:10:57.348Z,997.4
2023-02-02T00:11:58.776Z,997.5
2023-02-02T00:13:00.177Z,997.4
2023-02-02T00:14:01.596Z,997.4
2023-02-02T00:15:03.005Z,997.4
2023-02-02T00:16:04.541Z,997.4
2023-02-02T00:17:05.935Z,997.4
2023-02-02T00:18:07.344Z,997.4
2023-02-02T00:19:08.801Z,997.4
2023-02-02T00:20:10.174Z,997.4
2023-02-02T00:21:11.589Z,997.4
2023-02-02T00:22:13.003Z,997.4
2023-02-02T00:23:14.450Z,997.4
2023-02-02T00:24:15.832Z,997.4
2023-02-02T00:25:17.272Z,997.4
2023-02-02T00:26:18.864Z,997.4
2023-02-02T00:27:20.278Z,997.5
2023-02-02T00:28:21.696Z,997.4
2023-02-02T00:29:23.114Z,997.4
2023-02-02T00:30:24.590Z,997.4
2023-02-02T00:31:26.142Z,997.4
2023-02-02T00:32:27.524Z,997.3
2023-02-02T00:33:28.950Z,997.3
2023-02-02T00:34:30.351Z,997.3
2023-02-02T00:35:31.772Z,997.3
2023-02-02T00:36:33.187Z,997.3
2023-02-02T00:37:34.638Z,997.3
2023-02-02T00:38:36.051Z,997.4
2023-02-02T00:39:37.468Z,997.4
2023-02-02T00:40:38.904Z,997.3
2023-02-02T00:41:40.303Z,997.3
2023-02-02T00:42:41.736Z,997.3
2023-02-02T00:43:43.131Z,997.3
2023-02-02T00:44:44.549Z,997.3
2023-02-02T00:45:46.095Z,997.2
2023-02-02T00:46:47.488Z,997.3
2023-02-02T00:47:48.901Z,997.2
2023-02-02T00:48:50.324Z,997.3
2023-02-02T00:49:51.738Z,997.3
2023-02-02T00:50:53.151Z,997.4
2023-02-02T00:51:54.651Z,997.4
2023-02-02T00:52:56.078Z,997.3
2023-02-02T00:53:57.488Z,997.3
2023-02-02T00:54:58.904Z,997.4
2023-02-02T00:56:00.416Z,997.4
2023-02-02T00:57:01.792Z,997.4
2023-02-02T00:58:03.214Z,997.4
2023-02-02T00:59:04.623Z,997.5
2023-02-02T01:00:06.052Z,997.5
2023-02-02T01:01:07.476Z,997.4
2023-02-02T01:02:09.078Z,997.5
2023-02-02T01:03:10.515Z,997.5
2023-02-02T01:04:11.923Z,997.5
2023-02-02T01:05:13.334Z,997.6
2023-02-02T01:06:14.748Z,997.5
2023-02-02T01:07:16.170Z,997.5
2023-02-02T01:08:17.587Z,997.5
2023-02-02T01:09:18.993Z,997.5
2023-02-02T01:10:20.408Z,997.5
2023-02-02T01:11:21.920Z,997.6
2023-02-02T01:12:23.300Z,997.5
2023-02-02T01:13:24.709Z,997.6
2023-02-02T01:14:26.120Z,997.6
2023-02-02T01:15:27.551Z,997.6
2023-02-02T01:16:29.125Z,997.6
2023-02-02T01:17:30.516Z,997.6
2023-02-02T01:18:31.923Z,997.6
2023-02-02T01:19:33.352Z,997.5
2023-02-02T01:20:34.754Z,997.5
2023-02-02T01:21:36.167Z,997.6
2023-02-02T01:22:37.590Z,997.6
2023-02-02T01:23:39.007Z,997.5
2023-02-02T01:24:40.420Z,997.6
2023-02-02T01:25:41.826Z,997.6
2023-02-02T01:26:43.552Z,997.6
2023-02-02T01:27:45.133Z,997.6
2023-02-02T01:28:46.545Z,997.6
2023-02-02T01:29:47.962Z,997.6
2023-02-02T01:30:49.496Z,997.6
2023-02-02T01:31:51.111Z,997.5
2023-02-02T01:32:52.599Z,997.6
2023-02-02T01:33:54.016Z,997.5
2023-02-02T01:34:55.430Z,997.5
2023-02-02T01:35:56.977Z,997.5
2023-02-02T01:36:58.388Z,997.6
2023-02-02T01:37:59.815Z,997.5
2023-02-02T01:39:01.215Z,997.6
2023-02-02T01:40:02.635Z,997.6
2023-02-02T01:41:04.055Z,997.5
2023-02-02T01:42:05.634Z,997.6
2023-02-02T01:43:07.161Z,997.6
2023-02-02T01:44:08.566Z,997.6
2023-02-02T01:45:09.980Z,997.7
2023-02-02T01:46:11.481Z,997.7
2023-02-02T01:47:12.957Z,997.7
2023-02-02T01:48:14.384Z,997.7
2023-02-02T01:49:15.796Z,997.8
2023-02-02T01:50:17.580Z,997.7
2023-02-02T01:51:18.997Z,997.7
2023-02-02T01:52:20.409Z,997.7
2023-02-02T01:53:21.827Z,997.8
2023-02-02T01:54:23.251Z,997.8
2023-02-02T01:55:25.352Z,997.8
2023-02-02T01:56:27.216Z,997.9
2023-02-02T01:57:28.679Z,997.8
2023-02-02T01:58:30.063Z,997.9
2023-02-02T01:59:31.510Z,997.9
2023-02-02T02:00:32.885Z,997.9
2023-02-02T02:01:34.472Z,998
2023-02-02T02:02:36.091Z,997.9
2023-02-02T02:03:37.508Z,998
2023-02-02T02:04:38.920Z,998
2023-02-02T02:05:40.337Z,998
2023-02-02T02:06:41.748Z,998
2023-02-02T02:07:43.163Z,998.1
2023-02-02T02:08:44.581Z,998.1
2023-02-02T02:09:45.991Z,998.1
2023-02-02T02:10:47.452Z,998.1
2023-02-02T02:11:48.882Z,998.1
2023-02-02T02:12:50.318Z,998
2023-02-02T02:13:51.734Z,998.1
2023-02-02T02:14:53.120Z,998
2023-02-02T02:15:54.541Z,998
2023-02-02T02:16:56.090Z,998
2023-02-02T02:17:57.469Z,997.9
2023-02-02T02:18:58.895Z,997.9
2023-02-02T02:20:00.304Z,998
2023-02-02T02:21:01.769Z,998
2023-02-02T02:22:03.161Z,998
2023-02-02T02:23:04.618Z,998
2023-02-02T02:24:05.757Z,998.1
2023-02-02T02:25:07.170Z,998
2023-02-02T02:26:08.581Z,998
2023-02-02T02:27:10.012Z,998.1
2023-02-02T02:28:11.438Z,998
2023-02-02T02:29:12.829Z,998.1
2023-02-02T02:30:14.246Z,998.1
2023-02-02T02:31:15.860Z,998.1
2023-02-02T02:32:17.529Z,998
2023-02-02T02:33:18.947Z,998.1
2023-02-02T02:34:20.379Z,998
2023-02-02T02:35:22.166Z,998.1
2023-02-02T02:36:24.116Z,998
2023-02-02T02:37:25.529Z,998.1
2023-02-02T02:38:26.944Z,998.1
2023-02-02T02:39:28.357Z,998.1
2023-02-02T02:40:29.771Z,998.1
2023-02-02T02:41:31.188Z,998.1
2023-02-02T02:42:32.603Z,998.1
2023-02-02T02:43:34.058Z,998.1
2023-02-02T02:44:35.444Z,998.2
2023-02-02T02:45:36.857Z,998.2
2023-02-02T02:46:38.274Z,998.2
2023-02-02T02:47:39.701Z,998.3
2023-02-02T02:48:41.107Z,998.3
2023-02-02T02:49:42.527Z,998.3
2023-02-02T02:50:43.952Z,998.2
2023-02-02T02:51:45.821Z,998.3
2023-02-02T02:52:47.210Z,998.2
2023-02-02T02:53:48.625Z,998.2
2023-02-02T02:54:50.041Z,998.2
2023-02-02T02:55:51.458Z,998.2
2023-02-02T02:56:52.873Z,998.2
2023-02-02T02:57:54.287Z,998.3
2023-02-02T02:58:55.847Z,998.3
2023-02-02T02:59:57.243Z,998.3
2023-02-02T03:00:58.648Z,998.3
2023-02-02T03:02:00.073Z,998.3
2023-02-02T03:03:01.482Z,998.3
2023-02-02T03:04:02.898Z,998.4
2023-02-02T03:05:04.316Z,998.4
2023-02-02T03:06:05.723Z,998.4
2023-02-02T03:07:07.143Z,998.5
2023-02-02T03:08:08.557Z,998.5
2023-02-02T03:09:09.975Z,998.5
2023-02-02T03:10:11.387Z,998.5
2023-02-02T03:11:12.899Z,998.5
2023-02-02T03:12:14.310Z,998.5
2023-02-02T03:13:15.723Z,998.5
2023-02-02T03:14:17.178Z,998.5
2023-02-02T03:15:18.559Z,998.5
2023-02-02T03:16:19.969Z,998.5
2023-02-02T03:17:21.386Z,998.5
2023-02-02T03:18:22.820Z,998.6
2023-02-02T03:19:24.215Z,998.5
2023-02-02T03:20:25.665Z,998.6
2023-02-02T03:21:27.083Z,998.6
2023-02-02T03:22:28.486Z,998.6
2023-02-02T03:23:29.902Z,998.7
2023-02-02T03:24:31.318Z,998.6
2023-02-02T03:25:32.733Z,998.6
2023-02-02T03:26:34.162Z,998.7
2023-02-02T03:27:35.643Z,998.7
2023-02-02T03:28:37.055Z,998.7
2023-02-02T03:29:38.498Z,998.7
2023-02-02T03:30:39.922Z,998.7
2023-02-02T03:31:41.636Z,998.7
2023-02-02T03:32:43.158Z,998.7
2023-02-02T03:33:44.561Z,998.7
2023-02-02T03:34:45.981Z,998.7
2023-02-02T03:35:47.393Z,998.7
2023-02-02T03:36:48.810Z,998.8
2023-02-02T03:37:50.219Z,998.8
2023-02-02T03:38:51.635Z,998.8
2023-02-02T03:39:54.375Z,998.7
2023-02-02T03:40:55.785Z,998.7
2023-02-02T03:41:57.199Z,998.8
2023-02-02T03:42:58.612Z,998.8
2023-02-02T03:44:00.037Z,998.6
2023-02-02T03:45:01.479Z,998.8
2023-02-02T03:46:03.168Z,998.8
2023-02-02T03:47:04.648Z,998.8
2023-02-02T03:48:06.119Z,998.8
2023-02-02T03:49:07.547Z,998.8
2023-02-02T03:50:10.522Z,998.9
2023-02-02T03:51:11.933Z,998.9
2023-02-02T03:52:13.372Z,998.9
2023-02-02T03:53:15.284Z,998.9
2023-02-02T03:54:16.694Z,999
2023-02-02T03:55:18.119Z,999
2023-02-02T03:56:19.548Z,999
2023-02-02T03:57:20.950Z,999
2023-02-02T03:58:22.492Z,999
2023-02-02T03:59:23.932Z,999
2023-02-02T04:00:25.375Z,999.1
2023-02-02T04:01:26.772Z,999
2023-02-02T04:02:28.332Z,999
2023-02-02T04:03:29.754Z,999
2023-02-02T04:04:31.160Z,999.1
2023-02-02T04:05:32.578Z,999.1
2023-02-02T04:06:33.994Z,999.1
2023-02-02T04:07:35.417Z,999.2
2023-02-02T04:08:36.819Z,999.3
2023-02-02T04:09:38.237Z,999.2
2023-02-02T04:10:39.655Z,999.2
2023-02-02T04:11:41.076Z,999.2
2023-02-02T04:12:42.477Z,999.2
2023-02-02T04:13:43.893Z,999.3
2023-02-02T04:14:45.310Z,999.3
2023-02-02T04:15:46.749Z,999.3
2023-02-02T04:16:48.140Z,999.3
2023-02-02T04:17:49.554Z,999.3
2023-02-02T04:18:50.967Z,999.3
2023-02-02T04:19:52.384Z,999.3
2023-02-02T04:20:53.836Z,999.3
2023-02-02T04:21:55.211Z,999.3
2023-02-02T04:22:56.628Z,999.3
2023-02-02T04:23:58.039Z,999.3
2023-02-02T04:24:59.457Z,999.4
2023-02-02T04:26:00.887Z,999.3
2023-02-02T04:27:02.288Z,999.4
2023-02-02T04:28:03.702Z,999.4
2023-02-02T04:29:05.119Z,999.4
2023-02-02T04:30:06.534Z,999.4
2023-02-02T04:31:08.229Z,999.4
2023-02-02T04:32:09.989Z,999.4
2023-02-02T04:33:11.400Z,999.4
2023-02-02T04:34:12.817Z,999.4
2023-02-02T04:35:14.242Z,999.4
2023-02-02T04:36:15.648Z,999.5
2023-02-02T04:37:17.061Z,999.5
2023-02-02T04:38:18.490Z,999.5
2023-02-02T04:39:19.940Z,999.5
2023-02-02T04:40:21.332Z,999.5
2023-02-02T04:41:22.745Z,999.5
2023-02-02T04:42:24.156Z,999.4
2023-02-02T04:43:25.595Z,999.4
2023-02-02T04:44:26.995Z,999.4
2023-02-02T04:45:28.881Z,999.5
2023-02-02T04:46:30.506Z,999.5
2023-02-02T04:47:31.883Z,999.5
2023-02-02T04:48:33.303Z,999.6
2023-02-02T04:49:34.710Z,999.6
2023-02-02T04:50:36.126Z,999.6
2023-02-02T04:51:37.537Z,999.6
2023-02-02T04:52:38.958Z,999.6
2023-02-02T04:53:40.372Z,999.6
2023-02-02T04:54:41.792Z,999.6
2023-02-02T04:55:43.201Z,999.6
2023-02-02T04:56:44.616Z,999.5
2023-02-02T04:57:46.035Z,999.6
2023-02-02T04:58:47.448Z,999.6
2023-02-02T04:59:48.891Z,999.6
2023-02-02T05:00:50.311Z,999.6
2023-02-02T05:01:51.760Z,999.7
2023-02-02T05:02:53.149Z,999.7
2023-02-02T05:03:54.563Z,999.7
2023-02-02T05:04:56.117Z,999.7
2023-02-02T05:05:57.514Z,999.7
2023-02-02T05:06:58.932Z,999.7
2023-02-02T05:08:00.353Z,999.7
2023-02-02T05:09:01.766Z,999.7
2023-02-02T05:10:03.188Z,999.7
2023-02-02T05:11:04.600Z,999.7
2023-02-02T05:12:06.011Z,999.8
2023-02-02T05:13:07.436Z,999.7
2023-02-02T05:14:08.843Z,999.8
2023-02-02T05:15:10.258Z,999.8
2023-02-02T05:16:11.748Z,999.7
2023-02-02T05:17:13.187Z,999.8
2023-02-02T05:18:14.581Z,999.8
2023-02-02T05:19:15.995Z,999.8
2023-02-02T05:20:17.433Z,999.8
2023-02-02T05:21:18.829Z,999.9
2023-02-02T05:22:20.249Z,999.9
2023-02-02T05:23:21.655Z,999.9
2023-02-02T05:24:23.066Z,999.9
2023-02-02T05:25:25.372Z,1000
2023-02-02T05:26:27.541Z,1000
2023-02-02T05:27:28.975Z,1000
2023-02-02T05:28:30.372Z,1000
2023-02-02T05:29:31.795Z,1000.1
2023-02-02T05:30:34.382Z,1000
2023-02-02T05:31:35.929Z,1000
2023-02-02T05:32:37.481Z,1000.1
2023-02-02T05:33:38.870Z,1000.1
2023-02-02T05:34:40.281Z,1000.1
2023-02-02T05:35:41.711Z,1000.1
2023-02-02T05:36:43.120Z,1000.1
2023-02-02T05:37:44.536Z,1000.1
2023-02-02T05:38:45.949Z,1000.1
2023-02-02T05:39:47.376Z,1000.1
2023-02-02T05:40:48.807Z,1000.1
2023-02-02T05:41:50.214Z,1000.1
2023-02-02T05:42:51.625Z,1000.1
2023-02-02T05:43:53.042Z,1000.1
2023-02-02T05:44:54.466Z,1000.1
2023-02-02T05:45:55.944Z,1000.1
2023-02-02T05:46:57.376Z,1000.2
2023-02-02T05:47:58.838Z,1000.1
2023-02-02T05:49:00.239Z,1000.1
2023-02-02T05:50:01.653Z,1000.2
2023-02-02T05:51:03.074Z,1000.2
2023-02-02T05:52:04.627Z,1000.2
2023-02-02T05:53:06.033Z,1000.2
2023-02-02T05:54:07.476Z,1000.2
2023-02-02T05:55:08.864Z,1000.2
2023-02-02T05:56:10.302Z,1000.2
2023-02-02T05:57:11.695Z,1000.2
2023-02-02T05:58:13.109Z,1000.2
2023-02-02T05:59:14.285Z,1000.2
2023-02-02T06:00:15.956Z,1000.2
2023-02-02T06:01:17.389Z,1000.2
2023-02-02T06:02:18.791Z,1000.2
2023-02-02T06:03:20.514Z,1000.2
2023-02-02T06:04:22.108Z,1000.2
2023-02-02T06:05:24.502Z,1000.2
2023-02-02T06:06:26.635Z,1000.2
2023-02-02T06:07:28.046Z,1000.3
2023-02-02T06:08:29.464Z,1000.3
2023-02-02T06:09:30.878Z,1000.3
2023-02-02T06:10:32.294Z,1000.3
2023-02-02T06:11:33.711Z,1000.3
2023-02-02T06:12:35.129Z,1000.3
2023-02-02T06:13:36.540Z,1000.2
2023-02-02T06:14:37.957Z,1000.2
2023-02-02T06:15:39.441Z,1000.2
2023-02-02T06:16:40.815Z,1000.2
2023-02-02T06:17:42.251Z,1000.3
2023-02-02T06:18:43.677Z,1000.3
2023-02-02T06:19:45.080Z,1000.3
2023-02-02T06:20:46.495Z,1000.3
2023-02-02T06:21:47.932Z,1000.3
2023-02-02T06:22:49.339Z,1000.3
2023-02-02T06:23:50.756Z,1000.4
2023-02-02T06:24:52.168Z,1000.3
2023-02-02T06:25:53.598Z,1000.4
2023-02-02T06:26:55.121Z,1000.3
2023-02-02T06:27:56.636Z,1000.4
2023-02-02T06:28:58.059Z,1000.4
2023-02-02T06:29:59.475Z,1000.4
2023-02-02T06:31:01.111Z,1000.4
2023-02-02T06:32:02.844Z,1000.4
2023-02-02T06:33:04.337Z,1000.4
2023-02-02T06:34:05.778Z,1000.5
2023-02-02T06:35:06.981Z,1000.5
2023-02-02T06:36:08.388Z,1000.5
2023-02-02T06:37:09.797Z,1000.5
2023-02-02T06:38:11.223Z,1000.6
2023-02-02T06:39:12.639Z,1000.6
2023-02-02T06:40:14.044Z,1000.6
2023-02-02T06:41:15.455Z,1000.6
2023-02-02T06:42:22.257Z,1000.7
2023-02-02T06:43:23.667Z,1000.6
2023-02-02T06:44:25.884Z,1000.6
2023-02-02T06:45:27.658Z,1000.6
2023-02-02T06:46:29.237Z,1000.6
2023-02-02T06:47:30.712Z,1000.6
2023-02-02T06:48:32.133Z,1000.6
2023-02-02T06:49:33.565Z,1000.7
2023-02-02T06:50:34.961Z,1000.7
2023-02-02T06:51:36.378Z,1000.7
2023-02-02T06:52:37.797Z,1000.7
2023-02-02T06:53:39.202Z,1000.7
2023-02-02T06:54:40.636Z,1000.7
2023-02-02T06:55:42.067Z,1000.7
2023-02-02T06:56:43.463Z,1000.7
2023-02-02T06:57:44.865Z,1000.8
2023-02-02T06:58:46.303Z,1000.8
2023-02-02T06:59:47.706Z,1000.8
2023-02-02T07:00:49.140Z,1000.7
2023-02-02T07:01:51.056Z,1000.8
2023-02-02T07:02:52.565Z,1000.8
2023-02-02T07:03:54.069Z,1000.8
2023-02-02T07:04:55.539Z,1000.8
2023-02-02T07:05:56.928Z,1000.8
2023-02-02T07:06:58.337Z,1000.8
2023-02-02T07:07:59.764Z,1000.8
2023-02-02T07:09:03.622Z,1000.8
2023-02-02T07:10:05.113Z,1000.9
2023-02-02T07:11:16.676Z,1000.9
2023-02-02T07:12:20.382Z,1000.8
2023-02-02T07:13:22.406Z,1000.8
2023-02-02T07:14:23.821Z,1000.8
2023-02-02T07:15:26.060Z,1000.8
2023-02-02T07:16:27.832Z,1000.9
2023-02-02T07:17:29.252Z,1000.9
2023-02-02T07:18:30.660Z,1000.9
2023-02-02T07:19:32.093Z,1000.9
2023-02-02T07:20:33.638Z,1000.9
2023-02-02T07:21:35.030Z,1000.9
2023-02-02T07:22:37.204Z,1000.9
2023-02-02T07:23:38.751Z,1001
2023-02-02T07:24:40.165Z,1001
2023-02-02T07:25:44.220Z,1001
2023-02-02T07:26:45.785Z,1001
2023-02-02T07:27:47.213Z,1001
2023-02-02T07:28:48.642Z,1001.1
2023-02-02T07:29:50.051Z,1001.1
2023-02-02T07:30:51.882Z,1001.1
2023-02-02T07:31:53.607Z,1001.1
2023-02-02T07:32:55.044Z,1001.1
2023-02-02T07:33:56.461Z,1001.1
2023-02-02T07:34:57.876Z,1001.1
2023-02-02T07:35:59.316Z,1001.1
2023-02-02T07:37:00.709Z,1001.2
2023-02-02T07:38:02.123Z,1001.2
2023-02-02T07:39:03.543Z,1001.2
2023-02-02T07:40:04.957Z,1001.2
2023-02-02T07:41:06.405Z,1001.2
2023-02-02T07:42:07.791Z,1001.2
2023-02-02T07:43:09.207Z,1001.3
2023-02-02T07:44:13.109Z,1001.3
2023-02-02T07:45:28.407Z,1001.3
2023-02-02T07:46:30.081Z,1001.3
2023-02-02T07:47:31.606Z,1001.3
2023-02-02T07:48:33.024Z,1001.4
2023-02-02T07:49:34.434Z,1001.4
2023-02-02T07:50:35.892Z,1001.4
2023-02-02T07:51:43.338Z,1001.4
2023-02-02T07:52:48.783Z,1001.4
2023-02-02T07:53:50.214Z,1001.4
2023-02-02T07:54:53.140Z,1001.5
2023-02-02T07:56:14.624Z,1001.5
2023-02-02T07:57:16.026Z,1001.6
2023-02-02T07:58:17.445Z,1001.6
2023-02-02T07:59:18.859Z,1001.6
2023-02-02T08:00:20.271Z,1001.5
2023-02-02T08:01:21.717Z,1001.6
2023-02-02T08:02:23.116Z,1001.6
2023-02-02T08:03:24.538Z,1001.6
2023-02-02T08:04:25.944Z,1001.6
2023-02-02T08:05:28.186Z,1001.7
2023-02-02T08:06:29.827Z,1001.7
2023-02-02T08:07:31.445Z,1001.7
2023-02-02T08:08:32.838Z,1001.7
2023-02-02T08:09:34.290Z,1001.7
2023-02-02T08:10:35.669Z,1001.7
2023-02-02T08:11:37.100Z,1001.8
2023-02-02T08:12:38.507Z,1001.7
2023-02-02T08:13:39.929Z,1001.7
2023-02-02T08:14:41.336Z,1001.8
2023-02-02T08:15:42.747Z,1001.8
2023-02-02T08:16:44.175Z,1001.8
2023-02-02T08:17:45.590Z,1001.8
2023-02-02T08:18:47.014Z,1001.9
2023-02-02T08:19:48.412Z,1001.9
2023-02-02T08:20:49.839Z,1001.9
2023-02-02T08:21:51.255Z,1001.9
2023-02-02T08:22:52.695Z,1001.9
2023-02-02T08:23:54.090Z,1001.9
2023-02-02T08:24:55.520Z,1001.9
2023-02-02T08:25:56.917Z,1002
2023-02-02T08:26:58.510Z,1002
2023-02-02T08:28:00.008Z,1002
2023-02-02T08:29:01.410Z,1002
2023-02-02T08:30:02.868Z,1002
2023-02-02T08:31:04.273Z,1002
2023-02-02T08:32:05.690Z,1002.1
2023-02-02T08:33:07.107Z,1002.1
2023-02-02T08:34:08.529Z,1002.1
2023-02-02T08:35:09.933Z,1002.1
2023-02-02T08:36:11.354Z,1002.1
2023-02-02T08:37:12.784Z,1002.1
2023-02-02T08:38:14.214Z,1002.1
2023-02-02T08:39:15.736Z,1002.1
2023-02-02T08:40:17.228Z,1002.1
2023-02-02T08:41:18.822Z,1002.1
2023-02-02T08:42:20.239Z,1002.1
2023-02-02T08:43:21.654Z,1002.1
2023-02-02T08:44:26.877Z,1002.1
2023-02-02T08:47:05.212Z,1002
2023-02-02T08:48:12.935Z,1002.1
2023-02-02T08:49:14.530Z,1002.1
2023-02-02T08:50:15.933Z,1002.1
2023-02-02T08:51:17.374Z,1002.1
2023-02-02T08:52:18.776Z,1002.1
2023-02-02T08:53:20.208Z,1002.1
2023-02-02T08:54:21.599Z,1002.1
2023-02-02T08:55:23.790Z,1002.1
2023-02-02T08:56:25.809Z,1002.1
2023-02-02T08:57:27.328Z,1002.1
2023-02-02T08:58:28.753Z,1002.1
2023-02-02T08:59:30.168Z,1002.1
2023-02-02T09:00:31.579Z,1002.1
2023-02-02T09:01:33.018Z,1002.1
2023-02-02T09:02:34.469Z,1002.2
2023-02-02T09:03:35.862Z,1002.2
2023-02-02T09:04:37.287Z,1002.2
2023-02-02T09:05:38.703Z,1002.2
2023-02-02T09:06:40.185Z,1002.2
2023-02-02T09:07:41.575Z,1002.2
2023-02-02T09:08:43.261Z,1002.2
2023-02-02T09:09:44.828Z,1002.2
2023-02-02T09:10:46.240Z,1002.2
2023-02-02T09:11:47.652Z,1002.2
2023-02-02T09:12:49.069Z,1002.2
2023-02-02T09:13:50.529Z,1002.3
2023-02-02T09:14:51.910Z,1002.3
2023-02-02T09:15:53.326Z,1002.3
2023-02-02T09:16:55.073Z,1002.3
2023-02-02T09:17:56.665Z,1002.3
2023-02-02T09:18:58.087Z,1002.3
2023-02-02T09:19:59.499Z,1002.3
2023-02-02T09:21:00.969Z,1002.3
2023-02-02T09:22:02.387Z,1002.4
2023-02-02T09:23:03.803Z,1002.3
2023-02-02T09:24:05.251Z,1002.3
2023-02-02T09:25:06.637Z,1002.3
2023-02-02T09:26:08.055Z,1002.3
2023-02-02T09:27:09.474Z,1002.4
2023-02-02T09:28:10.882Z,1002.4
2023-02-02T09:29:12.303Z,1002.4
2023-02-02T09:30:13.724Z,1002.4
2023-02-02T09:31:15.368Z,1002.4
2023-02-02T09:32:16.875Z,1002.4
2023-02-02T09:33:18.307Z,1002.4
2023-02-02T09:34:19.703Z,1002.4
2023-02-02T09:35:21.116Z,1002.4
2023-02-02T09:36:22.537Z,1002.4
2023-02-02T09:37:23.962Z,1002.4
2023-02-02T09:38:25.374Z,1002.5
2023-02-02T09:39:26.813Z,1002.5
2023-02-02T09:40:28.239Z,1002.5
2023-02-02T09:41:29.617Z,1002.5
2023-02-02T09:42:31.037Z,1002.5
2023-02-02T09:43:32.460Z,1002.5
2023-02-02T09:44:33.903Z,1002.5
2023-02-02T09:45:35.381Z,1002.5
2023-02-02T09:46:36.793Z,1002.5
2023-02-02T09:47:38.334Z,1002.5
2023-02-02T09:48:39.747Z,1002.6
2023-02-02T09:49:41.172Z,1002.6
2023-02-02T09:50:42.579Z,1002.5
2023-02-02T09:51:43.997Z,1002.5
2023-02-02T09:52:45.416Z,1002.6
2023-02-02T09:53:56.212Z,1002.6
2023-02-02T09:54:57.699Z,1002.6
2023-02-02T09:55:59.097Z,1002.6
2023-02-02T09:57:00.526Z,1002.6
2023-02-02T09:58:01.957Z,1002.6
2023-02-02T09:59:21.880Z,1002.6
2023-02-02T10:00:25.623Z,1002.7
2023-02-02T10:01:27.097Z,1002.7
2023-02-02T10:02:28.615Z,1002.7
2023-02-02T10:03:30.077Z,1002.7
2023-02-02T10:04:31.545Z,1002.7
2023-02-02T10:05:32.965Z,1002.7
2023-02-02T10:06:34.381Z,1002.7
2023-02-02T10:07:35.797Z,1002.7
2023-02-02T10:08:37.212Z,1002.7
2023-02-02T10:09:38.629Z,1002.8
2023-02-02T10:10:40.070Z,1002.8
2023-02-02T10:11:41.472Z,1002.8
2023-02-02T10:12:42.873Z,1002.8
2023-02-02T10:13:44.384Z,1002.8
2023-02-02T10:14:45.852Z,1002.8
2023-02-02T10:15:47.578Z,1002.8
2023-02-02T10:16:48.990Z,1002.8
2023-02-02T10:17:50.396Z,1002.8
2023-02-02T10:18:51.813Z,1002.8
2023-02-02T10:19:52.950Z,1002.8
2023-02-02T10:20:54.353Z,1002.8
2023-02-02T10:21:55.753Z,1002.8
2023-02-02T10:22:57.183Z,1002.8
2023-02-02T10:24:02.180Z,1002.8
2023-02-02T10:25:03.727Z,1002.8
2023-02-02T10:26:05.210Z,1002.8
2023-02-02T10:27:06.606Z,1002.9
2023-02-02T10:28:08.041Z,1002.8
2023-02-02T10:29:09.457Z,1002.9
2023-02-02T10:30:10.870Z,1002.9
2023-02-02T10:31:12.564Z,1002.9
2023-02-02T10:32:14.179Z,1002.9
2023-02-02T10:33:15.655Z,1003
2023-02-02T10:34:17.040Z,1003
2023-02-02T10:35:18.447Z,1003
2023-02-02T10:36:19.857Z,1003
2023-02-02T10:37:21.288Z,1003
2023-02-02T10:38:22.690Z,1003
2023-02-02T10:39:24.105Z,1003
2023-02-02T10:40:26.462Z,1003
2023-02-02T10:41:28.720Z,1003
2023-02-02T10:42:30.119Z,1003
2023-02-02T10:43:31.541Z,1003
2023-02-02T10:44:32.954Z,1003
2023-02-02T10:45:34.355Z,1003.1
2023-02-02T10:46:35.886Z,1003
2023-02-02T10:47:37.536Z,1003
2023-02-02T10:48:38.946Z,1003
2023-02-02T10:49:40.442Z,1003.1
2023-02-02T10:50:41.856Z,1003.1
2023-02-02T10:51:43.261Z,1003.1
2023-02-02T10:52:44.691Z,1003.1
2023-02-02T10:53:46.077Z,1003.1
2023-02-02T10:54:58.829Z,1003.1
2023-02-02T10:56:03.801Z,1003.1
2023-02-02T10:57:05.257Z,1003.2
2023-02-02T10:58:06.661Z,1003.1
2023-02-02T10:59:08.123Z,1003.2
2023-02-02T11:00:09.608Z,1003.2
2023-02-02T11:01:11.042Z,1003.2
2023-02-02T11:02:21.744Z,1003.2
2023-02-02T11:03:23.633Z,1003.2
2023-02-02T11:04:25.038Z,1003.1
2023-02-02T11:05:26.461Z,1003.2
2023-02-02T11:06:27.874Z,1003.1
2023-02-02T11:07:29.319Z,1003.2
2023-02-02T11:08:30.869Z,1003.2
2023-02-02T11:09:32.281Z,1003.1
2023-02-02T11:10:34.231Z,1003.1
2023-02-02T11:11:37.801Z,1003.2
2023-02-02T11:12:39.333Z,1003.1
2023-02-02T11:13:40.713Z,1003.2
2023-02-02T11:14:46.307Z,1003.2
2023-02-02T11:15:48.030Z,1003.1
2023-02-02T11:16:49.769Z,1003.1
2023-02-02T11:17:51.314Z,1003.2
2023-02-02T11:18:52.727Z,1003.2
2023-02-02T11:19:54.147Z,1003.2
2023-02-02T11:20:55.573Z,1003.2
2023-02-02T11:21:56.997Z,1003.2
2023-02-02T11:22:58.417Z,1003.2
2023-02-02T11:23:59.827Z,1003.2
2023-02-02T11:25:01.247Z,1003.3
2023-02-02T11:26:02.791Z,1003.3
2023-02-02T11:27:04.211Z,1003.3
2023-02-02T11:28:05.671Z,1003.4
2023-02-02T11:29:07.081Z,1003.3
2023-02-02T11:30:08.492Z,1003.4
2023-02-02T11:31:10.165Z,1003.4
2023-02-02T11:32:11.851Z,1003.4
2023-02-02T11:33:13.255Z,1003.4
2023-02-02T11:34:14.669Z,1003.4
2023-02-02T11:35:16.088Z,1003.5
2023-02-02T11:36:17.522Z,1003.5
2023-02-02T11:37:18.920Z,1003.5
2023-02-02T11:38:20.333Z,1003.5
2023-02-02T11:39:21.753Z,1003.5
2023-02-02T11:40:23.915Z,1003.5
2023-02-02T11:41:26.241Z,1003.5
2023-02-02T11:42:27.664Z,1003.5
2023-02-02T11:43:29.275Z,1003.5
2023-02-02T11:44:30.655Z,1003.5
2023-02-02T11:45:32.075Z,1003.5
2023-02-02T11:46:33.588Z,1003.6
2023-02-02T11:47:35.193Z,1003.6
2023-02-02T11:48:36.630Z,1003.6
2023-02-02T11:49:38.175Z,1003.5
2023-02-02T11:50:39.718Z,1003.5
2023-02-02T11:51:41.218Z,1003.5
2023-02-02T11:52:42.637Z,1003.5
2023-02-02T11:53:44.054Z,1003.6
2023-02-02T11:54:45.495Z,1003.5
2023-02-02T11:55:46.606Z,1003.5
2023-02-02T11:56:48.022Z,1003.5
2023-02-02T11:57:49.435Z,1003.5
2023-02-02T11:58:50.874Z,1003.5
2023-02-02T11:59:52.278Z,1003.5
2023-02-02T12:00:53.684Z,1003.5
2023-02-02T12:01:55.116Z,1003.6
2023-02-02T12:02:56.520Z,1003.5
2023-02-02T12:03:57.982Z,1003.5
2023-02-02T12:04:59.475Z,1003.5
2023-02-02T12:06:00.891Z,1003.5
2023-02-02T12:07:02.307Z,1003.4
2023-02-02T12:08:03.744Z,1003.5
2023-02-02T12:09:05.143Z,1003.4
2023-02-02T12:10:06.566Z,1003.4
2023-02-02T12:11:07.984Z,1003.4
2023-02-02T12:12:09.396Z,1003.3
2023-02-02T12:13:10.811Z,1003.4
2023-02-02T12:14:12.375Z,1003.4
2023-02-02T12:15:13.800Z,1003.4
2023-02-02T12:16:15.283Z,1003.5
2023-02-02T12:17:16.873Z,1003.4
2023-02-02T12:18:18.303Z,1003.4
2023-02-02T12:19:19.801Z,1003.4
2023-02-02T12:20:21.220Z,1003.3
2023-02-02T12:21:22.627Z,1003.4
2023-02-02T12:22:24.069Z,1003.4
2023-02-02T12:23:26.057Z,1003.5
2023-02-02T12:24:27.444Z,1003.5
2023-02-02T12:25:28.872Z,1003.5
2023-02-02T12:26:30.192Z,1003.5
2023-02-02T12:27:31.376Z,1003.5
2023-02-02T12:28:32.793Z,1003.5
2023-02-02T12:29:34.359Z,1003.5
2023-02-02T12:30:36.074Z,1003.5
2023-02-02T12:31:37.605Z,1003.5
2023-02-02T12:32:39.024Z,1003.5
2023-02-02T12:33:40.437Z,1003.5
2023-02-02T12:34:41.975Z,1003.6
2023-02-02T12:35:43.390Z,1003.5
2023-02-02T12:36:44.839Z,1003.5
2023-02-02T12:37:46.270Z,1003.5
2023-02-02T12:38:47.689Z,1003.5
2023-02-02T12:39:49.101Z,1003.5
2023-02-02T12:40:50.532Z,1003.6
2023-02-02T12:41:51.942Z,1003.5
2023-02-02T12:42:53.509Z,1003.5
2023-02-02T12:43:55.145Z,1003.5
2023-02-02T12:44:56.586Z,1003.5
2023-02-02T12:45:58.082Z,1003.6
2023-02-02T12:46:59.570Z,1003.5
2023-02-02T12:48:00.986Z,1003.5
2023-02-02T12:49:02.402Z,1003.6
2023-02-02T12:50:03.819Z,1003.6
2023-02-02T12:51:05.244Z,1003.6
2023-02-02T12:52:06.651Z,1003.6
2023-02-02T12:53:10.577Z,1003.5
2023-02-02T12:54:42.744Z,1003.6
2023-02-02T12:55:57.594Z,1003.6
2023-02-02T12:56:59.133Z,1003.6
2023-02-02T12:58:00.545Z,1003.6
2023-02-02T12:59:01.980Z,1003.5
2023-02-02T13:00:03.417Z,1003.5
2023-02-02T13:01:04.949Z,1003.6
2023-02-02T13:02:06.426Z,1003.6
2023-02-02T13:03:07.917Z,1003.6
2023-02-02T13:04:09.335Z,1003.6
2023-02-02T13:05:10.872Z,1003.6
2023-02-02T13:06:12.310Z,1003.7